Time;durP1;ratioP1;P1;durP2;ratioP2;P2;SDS_P1;SDS_P2;PMS_P1;PMS_P2;Temp;Humidity;BMP_temperature;BMP_pressure;BME280_temperature;BME280_humidity;BME280_pressure;Samples;Min_cycle;Max_cycle;Signal;HPM_P1;HPM_P2
2021/10/26 00:00:06;;;;;;;;;;;;;;;14.58;77.74;101374.13;1049043;28;678;-60
2021/10/26 00:00:56;;;;;;;;;;;;;;;14.58;77.36;101376.81;1049190;28;895;-60
2021/10/26 00:01:46;;;;;;;;;;;;;;;14.59;77.99;101378.53;1048877;28;749;-60
2021/10/26 00:02:37;;;;;;;;;;;;;;;14.58;77.41;101377.69;1049109;28;680;-60
2021/10/26 00:03:27;;;;;;;;;;;;;;;14.57;78.12;101380.47;1048762;28;1099;-60
2021/10/26 00:04:18;;;;;;;;;;;;;;;14.58;77.43;101385.72;1048947;28;689;-60
2021/10/26 00:05:08;;;;;;;;;;;;;;;14.58;77.78;101387.53;1049181;28;745;-59
2021/10/26 00:05:58;;;;;;;;;;;;;;;14.58;77.40;101385.72;1048966;28;661;-59
2021/10/26 00:06:49;;;;;;;;;;;;;;;14.58;77.89;101382.19;1049247;28;742;-59
2021/10/26 00:07:39;;;;;;;;;;;;;;;14.58;77.47;101379.50;1048738;28;696;-59
2021/10/26 00:08:30;;;;;;;;;;;;;;;14.59;77.29;101378.53;1048957;28;610;-59
2021/10/26 00:09:20;;;;;;;;;;;;;;;14.58;78.03;101382.19;1049148;28;937;-59
2021/10/26 00:10:12;;;;;;;;;;;;;;;14.60;77.50;101382.94;1048826;28;674;-59
2021/10/26 00:11:03;;;;;;;;;;;;;;;14.59;77.95;101379.38;1046706;28;771;-58
2021/10/26 00:11:54;;;;;;;;;;;;;;;14.60;78.16;101380.25;1045473;28;646;-59
2021/10/26 00:12:44;;;;;;;;;;;;;;;14.61;77.89;101379.28;1045475;28;677;-59
2021/10/26 00:13:34;;;;;;;;;;;;;;;14.60;77.98;101385.63;1045179;28;733;-59
2021/10/26 00:14:25;;;;;;;;;;;;;;;14.59;77.54;101379.38;1045667;28;2054;-61
2021/10/26 00:15:16;;;;;;;;;;;;;;;14.59;77.75;101384.75;1049482;28;705;-60
2021/10/26 00:16:06;;;;;;;;;;;;;;;14.58;77.45;101376.81;1051327;28;716;-59
2021/10/26 00:16:57;;;;;;;;;;;;;;;14.58;77.77;101382.19;1050624;28;645;-59
2021/10/26 00:17:47;;;;;;;;;;;;;;;14.60;77.59;101385.63;1050665;28;736;-59
2021/10/26 00:18:37;;;;;;;;;;;;;;;14.60;77.54;101382.94;1050456;28;1890;-60
2021/10/26 00:19:28;;;;;;;;;;;;;;;14.59;78.08;101384.75;1050622;28;697;-59
2021/10/26 00:20:18;;;;;;;;;;;;;;;14.60;77.46;101385.63;1050616;28;629;-60
2021/10/26 00:21:09;;;;;;;;;;;;;;;14.61;78.29;101394.53;1050672;28;756;-60
2021/10/26 00:21:59;;;;;;;;;;;;;;;14.61;78.00;101397.19;1050647;28;898;-60
2021/10/26 00:22:50;;;;;;;;;;;;;;;14.59;78.00;101390.13;1050646;28;641;-60
2021/10/26 00:23:40;;;;;;;;;;;;;;;14.60;77.78;101388.28;1050492;28;867;-60
2021/10/26 00:24:30;;;;;;;;;;;;;;;14.61;77.23;101392.69;1049091;28;1691;-60
2021/10/26 00:25:21;;;;;;;;;;;;;;;14.59;78.20;101395.47;1049292;28;1557;-61
2021/10/26 00:26:11;;;;;;;;;;;;;;;14.58;78.01;101390.22;1047319;28;1360;-60
2021/10/26 00:27:02;;;;;;;;;;;;;;;14.59;77.97;101394.63;1049818;28;1213;-60
2021/10/26 00:27:52;;;;;;;;;;;;;;;14.58;77.44;101388.41;1047582;28;1198;-61
2021/10/26 00:28:43;;;;;;;;;;;;;;;14.58;77.36;101388.41;1049918;28;673;-62
2021/10/26 00:29:33;;;;;;;;;;;;;;;14.57;77.37;101397.41;1049995;28;689;-59
2021/10/26 00:30:25;;;;;;;;;;;;;;;14.57;77.59;101392.06;1049923;28;738;-59
2021/10/26 00:31:16;;;;;;;;;;;;;;;14.58;77.99;101392.91;1049041;28;1835;-59
2021/10/26 00:32:06;;;;;;;;;;;;;;;14.58;77.37;101393.78;1050486;28;836;-59
2021/10/26 00:32:56;;;;;;;;;;;;;;;14.58;77.41;101396.44;1050667;28;625;-60
2021/10/26 00:33:47;;;;;;;;;;;;;;;14.59;77.59;101400.00;1050641;28;664;-59
2021/10/26 00:34:37;;;;;;;;;;;;;;;14.57;77.89;101402.78;1050458;28;625;-60
2021/10/26 00:35:28;;;;;;;;;;;;;;;14.58;77.94;101409.00;1050543;28;789;-60
2021/10/26 00:36:18;;;;;;;;;;;;;;;14.58;77.54;101411.69;1052450;28;1672;-61
2021/10/26 00:37:09;;;;;;;;;;;;;;;14.58;77.86;101414.38;1053145;28;642;-61
2021/10/26 00:38:00;;;;;;;;;;;;;;;14.57;77.51;101418.88;1052931;28;622;-60
2021/10/26 00:38:50;;;;;;;;;;;;;;;14.57;77.56;101418.88;1053405;28;696;-61
2021/10/26 00:39:41;;;;;;;;;;;;;;;14.58;77.41;101419.72;1048841;28;2035;-60
2021/10/26 00:40:31;;;;;;;;;;;;;;;14.57;78.19;101420.69;1049487;28;821;-61
2021/10/26 00:41:22;;;;;;;;;;;;;;;14.58;77.51;101414.38;1049327;28;638;-60
2021/10/26 00:42:12;;;;;;;;;;;;;;;14.57;77.72;101418.03;1049567;28;602;-60
2021/10/26 00:43:02;;;;;;;;;;;;;;;14.58;78.22;101419.72;1049321;28;644;-62
2021/10/26 00:43:53;;;;;;;;;;;;;;;14.59;77.76;101416.09;1049540;28;672;-61
2021/10/26 00:44:43;;;;;;;;;;;;;;;14.59;77.42;101416.94;1048413;28;1925;-61
2021/10/26 00:45:34;;;;;;;;;;;;;;;14.58;78.01;101417.06;1049388;28;980;-61
2021/10/26 00:46:24;;;;;;;;;;;;;;;14.59;77.49;101426.81;1049540;28;751;-60
2021/10/26 00:47:14;;;;;;;;;;;;;;;14.58;77.41;101420.59;1049945;28;666;-60
2021/10/26 00:48:05;;;;;;;;;;;;;;;14.58;77.93;101425.09;1048863;28;1386;-60
2021/10/26 00:48:55;;;;;;;;;;;;;;;14.59;78.37;101426.81;1049900;28;905;-59
2021/10/26 00:49:46;;;;;;;;;;;;;;;14.58;77.75;101425.09;1048797;28;622;-59
2021/10/26 00:50:36;;;;;;;;;;;;;;;14.58;78.01;101417.06;1049070;28;628;-60
2021/10/26 00:51:28;;;;;;;;;;;;;;;14.58;77.57;101427.78;1048661;28;710;-59
2021/10/26 00:52:19;;;;;;;;;;;;;;;14.57;77.70;101426.91;1050383;28;609;-60
2021/10/26 00:53:09;;;;;;;;;;;;;;;14.57;77.74;101429.59;1048893;28;942;-60
2021/10/26 00:53:59;;;;;;;;;;;;;;;14.58;77.55;101425.97;1048594;28;685;-60
2021/10/26 00:54:50;;;;;;;;;;;;;;;14.58;77.58;101433.16;1047087;28;1739;-60
2021/10/26 00:55:40;;;;;;;;;;;;;;;14.57;78.38;101428.75;1046827;28;702;-60
2021/10/26 00:56:31;;;;;;;;;;;;;;;14.57;78.13;101423.38;1046808;28;737;-60
2021/10/26 00:57:25;;;;;;;;;;;;;;;14.57;77.90;101423.38;1046658;28;887;-60
2021/10/26 00:58:16;;;;;;;;;;;;;;;14.57;77.47;101426.91;1046712;28;1957;-60
2021/10/26 00:59:06;;;;;;;;;;;;;;;14.57;77.43;101421.56;1046172;28;1875;-60
2021/10/26 00:59:56;;;;;;;;;;;;;;;14.57;77.84;101418.03;1044570;28;689;-60
2021/10/26 01:00:47;;;;;;;;;;;;;;;14.58;77.80;101417.06;1044762;28;708;-60
2021/10/26 01:01:38;;;;;;;;;;;;;;;14.57;77.87;101418.88;1044348;28;991;-60
2021/10/26 01:02:28;;;;;;;;;;;;;;;14.58;78.23;101425.09;1045023;28;634;-62
2021/10/26 01:03:19;;;;;;;;;;;;;;;14.56;77.46;101417.16;1044403;28;1120;-62
2021/10/26 01:04:09;;;;;;;;;;;;;;;14.56;77.40;101418.97;1044963;28;622;-61
2021/10/26 01:05:00;;;;;;;;;;;;;;;14.57;77.42;101416.19;1044714;28;763;-61
2021/10/26 01:05:50;;;;;;;;;;;;;;;14.57;77.75;101418.88;1044373;28;832;-62
2021/10/26 01:06:41;;;;;;;;;;;;;;;14.57;77.63;101418.88;1045133;28;665;-62
2021/10/26 01:07:31;;;;;;;;;;;;;;;14.58;78.17;101412.53;1044283;28;641;-62
2021/10/26 01:08:22;;;;;;;;;;;;;;;14.58;77.59;101414.38;1044650;28;716;-62
2021/10/26 01:09:12;;;;;;;;;;;;;;;14.58;77.56;101417.06;1044843;28;611;-61
2021/10/26 01:10:03;;;;;;;;;;;;;;;14.57;77.71;101413.50;1044516;28;850;-61
2021/10/26 01:10:53;;;;;;;;;;;;;;;14.57;78.02;101412.66;1044751;28;622;-61
2021/10/26 01:11:43;;;;;;;;;;;;;;;14.57;77.64;101418.03;1044378;28;791;-62
2021/10/26 01:12:34;;;;;;;;;;;;;;;14.57;78.00;101423.38;1044608;28;685;-61
2021/10/26 01:13:24;;;;;;;;;;;;;;;14.58;77.44;101419.72;1044686;28;786;-61
2021/10/26 01:14:15;;;;;;;;;;;;;;;14.57;77.65;101418.03;1044588;28;803;-61
2021/10/26 01:15:06;;;;;;;;;;;;;;;14.57;78.02;101418.03;1045127;28;723;-61
2021/10/26 01:15:57;;;;;;;;;;;;;;;14.56;77.91;101413.63;1044915;28;846;-61
2021/10/26 01:16:47;;;;;;;;;;;;;;;14.56;77.73;101419.84;1045056;28;618;-61
2021/10/26 01:17:38;;;;;;;;;;;;;;;14.56;77.51;101417.16;1044536;28;598;-61
2021/10/26 01:18:28;;;;;;;;;;;;;;;14.56;78.08;101413.63;1044594;28;1943;-61
2021/10/26 01:19:19;;;;;;;;;;;;;;;14.57;77.68;101420.69;1044498;28;606;-61
2021/10/26 01:20:09;;;;;;;;;;;;;;;14.58;77.54;101422.41;1044645;28;813;-61
2021/10/26 01:20:59;;;;;;;;;;;;;;;14.56;77.43;101425.22;1046288;28;685;-61
2021/10/26 01:21:50;;;;;;;;;;;;;;;14.55;78.08;101419.94;1044556;28;705;-61
2021/10/26 01:22:40;;;;;;;;;;;;;;;14.56;77.80;101427.88;1044847;28;689;-61
2021/10/26 01:23:31;;;;;;;;;;;;;;;14.56;77.60;101427.03;1044532;28;744;-61
2021/10/26 01:24:21;;;;;;;;;;;;;;;14.54;77.94;101419.09;1044653;28;849;-61
2021/10/26 01:25:12;;;;;;;;;;;;;;;14.55;77.65;101419.94;1044507;28;670;-61
2021/10/26 01:26:02;;;;;;;;;;;;;;;14.54;78.20;101421.78;1044611;28;726;-61
2021/10/26 01:26:52;;;;;;;;;;;;;;;14.55;77.57;101425.31;1044455;28;638;-61
2021/10/26 01:27:43;;;;;;;;;;;;;;;14.55;77.63;101426.16;1044559;28;1821;-61
2021/10/26 01:28:33;;;;;;;;;;;;;;;14.55;77.65;101417.28;1046591;28;713;-61
2021/10/26 01:29:24;;;;;;;;;;;;;;;14.55;77.66;101420.81;1046710;28;1342;-61
2021/10/26 01:30:14;;;;;;;;;;;;;;;14.56;78.11;101425.22;1045990;28;2102;-61
2021/10/26 01:31:04;;;;;;;;;;;;;;;14.55;78.00;101417.28;1046761;28;622;-61
2021/10/26 01:31:55;;;;;;;;;;;;;;;14.55;77.97;101417.28;1046643;28;681;-60
2021/10/26 01:32:45;;;;;;;;;;;;;;;14.56;78.11;101411.78;1046672;28;801;-61
2021/10/26 01:33:36;;;;;;;;;;;;;;;14.57;78.38;101416.19;1046672;28;645;-61
2021/10/26 01:34:26;;;;;;;;;;;;;;;14.57;77.62;101418.88;1047261;28;700;-61
2021/10/26 01:35:16;;;;;;;;;;;;;;;14.57;77.78;101423.38;1047219;28;696;-61
2021/10/26 01:36:07;;;;;;;;;;;;;;;14.56;77.74;101417.16;1046369;28;1664;-61
2021/10/26 01:36:57;;;;;;;;;;;;;;;14.55;77.76;101412.75;1042652;28;948;-61
2021/10/26 01:37:48;;;;;;;;;;;;;;;14.55;78.05;101415.44;1042596;28;705;-61
2021/10/26 01:38:38;;;;;;;;;;;;;;;14.55;77.71;101403.84;1042423;28;1886;-60
2021/10/26 01:39:29;;;;;;;;;;;;;;;14.56;77.73;101416.31;1042613;28;646;-60
2021/10/26 01:40:19;;;;;;;;;;;;;;;14.55;77.98;101403.84;1045480;28;770;-61
2021/10/26 01:41:09;;;;;;;;;;;;;;;14.56;77.57;101416.31;1046712;28;842;-60
2021/10/26 01:42:00;;;;;;;;;;;;;;;14.56;77.73;101417.16;1046142;28;646;-60
2021/10/26 01:42:50;;;;;;;;;;;;;;;14.57;78.42;101412.66;1046223;28;641;-60
2021/10/26 01:43:41;;;;;;;;;;;;;;;14.56;77.69;101410.94;1046958;28;1869;-60
2021/10/26 01:44:31;;;;;;;;;;;;;;;14.55;77.75;101402.03;1046918;28;759;-60
2021/10/26 01:45:22;;;;;;;;;;;;;;;14.56;78.13;101402.88;1046614;28;673;-60
2021/10/26 01:46:12;;;;;;;;;;;;;;;14.55;78.33;101399.34;1046716;28;675;-60
2021/10/26 01:47:02;;;;;;;;;;;;;;;14.55;78.26;101406.53;1043904;28;713;-61
2021/10/26 01:47:53;;;;;;;;;;;;;;;14.55;77.69;101401.19;1041453;28;768;-60
2021/10/26 01:48:44;;;;;;;;;;;;;;;14.55;77.92;101402.03;1041971;28;692;-60
2021/10/26 01:49:34;;;;;;;;;;;;;;;14.56;77.73;101406.44;1042003;28;883;-60
2021/10/26 01:50:24;;;;;;;;;;;;;;;14.56;77.47;101405.56;1041959;28;661;-60
2021/10/26 01:51:15;;;;;;;;;;;;;;;14.56;78.22;101401.06;1042039;28;645;-60
2021/10/26 01:52:05;;;;;;;;;;;;;;;14.56;78.43;101413.63;1042059;28;685;-60
2021/10/26 01:52:56;;;;;;;;;;;;;;;14.57;77.94;101409.97;1042118;28;665;-60
2021/10/26 01:53:46;;;;;;;;;;;;;;;14.55;78.05;101409.22;1037111;28;809;-60
2021/10/26 01:54:37;;;;;;;;;;;;;;;14.55;77.71;101410.06;1038895;28;620;-60
2021/10/26 01:55:28;;;;;;;;;;;;;;;14.56;77.61;101410.94;1041943;28;697;-61
2021/10/26 01:56:18;;;;;;;;;;;;;;;14.56;77.73;101413.63;1040904;28;700;-60
2021/10/26 01:57:08;;;;;;;;;;;;;;;14.55;78.46;101412.75;1042029;28;688;-60
2021/10/26 01:57:59;;;;;;;;;;;;;;;14.56;78.13;101417.16;1042667;28;849;-60
2021/10/26 01:58:52;;;;;;;;;;;;;;;14.56;77.78;101410.94;1042636;28;733;-60
2021/10/26 01:59:43;;;;;;;;;;;;;;;14.57;77.65;101415.34;1042543;28;779;-60
2021/10/26 02:00:33;;;;;;;;;;;;;;;14.56;77.92;101410.94;1042536;28;701;-60
2021/10/26 02:01:24;;;;;;;;;;;;;;;14.56;78.33;101410.94;1042956;28;697;-61
2021/10/26 02:02:14;;;;;;;;;;;;;;;14.57;78.17;101409.97;1042497;28;795;-60
2021/10/26 02:03:05;;;;;;;;;;;;;;;14.56;77.75;101424.34;1041807;28;919;-60
2021/10/26 02:03:56;;;;;;;;;;;;;;;14.57;78.18;101423.38;1042880;28;940;-61
2021/10/26 02:04:46;;;;;;;;;;;;;;;14.56;78.00;101416.31;1042635;28;638;-61
2021/10/26 02:05:37;;;;;;;;;;;;;;;14.57;78.08;101420.69;1041308;28;748;-61
2021/10/26 02:06:27;;;;;;;;;;;;;;;14.57;78.04;101423.38;1042820;28;670;-60
2021/10/26 02:07:17;;;;;;;;;;;;;;;14.56;78.18;101421.66;1042916;28;675;-60
2021/10/26 02:08:08;;;;;;;;;;;;;;;14.56;78.14;101421.66;1041316;28;878;-61
2021/10/26 02:08:59;;;;;;;;;;;;;;;14.55;77.90;101414.59;1041969;28;660;-60
2021/10/26 02:09:50;;;;;;;;;;;;;;;14.54;77.99;101420.91;1041403;28;626;-60
2021/10/26 02:10:40;;;;;;;;;;;;;;;14.55;77.63;101415.44;1041831;28;776;-60
2021/10/26 02:11:31;;;;;;;;;;;;;;;14.54;78.32;101420.91;1045417;28;1805;-60
2021/10/26 02:12:22;;;;;;;;;;;;;;;14.56;78.11;101421.66;1046416;28;978;-60
2021/10/26 02:13:14;;;;;;;;;;;;;;;14.54;77.99;101416.41;1044254;28;2040;-60
2021/10/26 02:14:05;;;;;;;;;;;;;;;14.54;78.15;101418.22;1046072;28;756;-61
2021/10/26 02:14:55;;;;;;;;;;;;;;;14.53;77.91;101412.00;1045954;28;736;-60
2021/10/26 02:15:46;;;;;;;;;;;;;;;14.53;77.92;101422.75;1045344;28;693;-60
2021/10/26 02:16:37;;;;;;;;;;;;;;;14.53;77.64;101422.75;1045966;28;734;-60
2021/10/26 02:17:27;;;;;;;;;;;;;;;14.52;77.87;101417.47;1046004;28;622;-60
2021/10/26 02:18:18;;;;;;;;;;;;;;;14.53;78.11;101424.56;1045739;28;1897;-60
2021/10/26 02:19:09;;;;;;;;;;;;;;;14.53;77.78;101421.88;1045783;28;932;-60
2021/10/26 02:19:59;;;;;;;;;;;;;;;14.54;78.10;101423.59;1045445;28;681;-60
2021/10/26 02:20:50;;;;;;;;;;;;;;;14.53;78.30;101417.38;1044980;28;912;-60
2021/10/26 02:21:40;;;;;;;;;;;;;;;14.53;78.17;101421.88;1044060;28;673;-60
2021/10/26 02:22:30;;;;;;;;;;;;;;;14.53;78.13;101420.06;1044019;28;686;-61
2021/10/26 02:23:21;;;;;;;;;;;;;;;14.54;78.28;101420.91;1045294;28;618;-61
2021/10/26 02:24:11;;;;;;;;;;;;;;;14.53;77.45;101416.53;1045885;28;698;-61
2021/10/26 02:25:02;;;;;;;;;;;;;;;14.53;78.24;101419.19;1045283;28;917;-60
2021/10/26 02:25:52;;;;;;;;;;;;;;;14.52;77.71;101421.03;1045715;28;756;-60
2021/10/26 02:26:42;;;;;;;;;;;;;;;14.53;77.64;101427.25;1045725;28;669;-60
2021/10/26 02:27:33;;;;;;;;;;;;;;;14.53;77.72;101421.88;1045777;28;637;-59
2021/10/26 02:28:23;;;;;;;;;;;;;;;14.53;77.75;101421.88;1045310;28;834;-61
2021/10/26 02:29:14;;;;;;;;;;;;;;;14.53;77.86;101427.25;1045822;28;1250;-60
2021/10/26 02:30:04;;;;;;;;;;;;;;;14.54;78.20;101423.59;1045475;28;642;-60
2021/10/26 02:30:54;;;;;;;;;;;;;;;14.53;78.38;101419.19;1045410;28;689;-60
2021/10/26 02:31:45;;;;;;;;;;;;;;;14.54;78.31;101426.28;1045340;28;755;-61
2021/10/26 02:32:35;;;;;;;;;;;;;;;14.53;77.55;101421.88;1045911;28;727;-60
2021/10/26 02:33:26;;;;;;;;;;;;;;;14.53;77.66;101427.25;1045403;28;1134;-60
2021/10/26 02:34:16;;;;;;;;;;;;;;;14.52;77.76;101426.38;1046359;28;657;-61
2021/10/26 02:35:07;;;;;;;;;;;;;;;14.52;77.80;101428.22;1045416;28;824;-61
2021/10/26 02:35:57;;;;;;;;;;;;;;;14.53;77.89;101432.63;1045769;28;661;-60
2021/10/26 02:36:48;;;;;;;;;;;;;;;14.53;77.90;101428.09;1038150;28;693;-60
2021/10/26 02:37:38;;;;;;;;;;;;;;;14.54;77.75;101428.97;1041295;28;685;-60
2021/10/26 02:38:29;;;;;;;;;;;;;;;14.53;78.09;101429.94;1042408;28;1902;-61
2021/10/26 02:39:19;;;;;;;;;;;;;;;14.52;77.74;101430.91;1042623;28;1816;-61
2021/10/26 02:40:09;;;;;;;;;;;;;;;14.52;77.80;101433.56;1046448;28;673;-60
2021/10/26 02:41:00;;;;;;;;;;;;;;;14.52;77.88;101428.22;1045356;28;673;-60
2021/10/26 02:41:50;;;;;;;;;;;;;;;14.53;77.46;101437.97;1045705;28;853;-60
2021/10/26 02:42:41;;;;;;;;;;;;;;;14.52;77.72;101437.13;1045283;28;598;-61
2021/10/26 02:43:31;;;;;;;;;;;;;;;14.53;77.57;101427.25;1045356;28;799;-61
2021/10/26 02:44:22;;;;;;;;;;;;;;;14.52;77.65;101450.53;1045297;28;628;-60
2021/10/26 02:45:13;;;;;;;;;;;;;;;14.52;77.97;101436.25;1045422;28;614;-60
2021/10/26 02:46:04;;;;;;;;;;;;;;;14.51;77.81;101434.56;1043283;28;782;-60
2021/10/26 02:46:54;;;;;;;;;;;;;;;14.52;78.17;101449.66;1044081;28;728;-60
2021/10/26 02:47:44;;;;;;;;;;;;;;;14.51;78.52;101443.44;1045481;28;1872;-61
2021/10/26 02:48:35;;;;;;;;;;;;;;;14.52;78.29;101441.63;1045259;28;610;-60
2021/10/26 02:49:25;;;;;;;;;;;;;;;14.51;77.90;101447.97;1045473;28;649;-60
2021/10/26 02:50:16;;;;;;;;;;;;;;;14.50;77.64;101452.50;1045960;28;716;-61
2021/10/26 02:51:07;;;;;;;;;;;;;;;14.50;77.63;101457.00;1045302;28;664;-61
2021/10/26 02:51:59;;;;;;;;;;;;;;;14.51;78.24;101456.03;1045192;28;669;-61
2021/10/26 02:52:49;;;;;;;;;;;;;;;14.50;78.05;101455.16;1045415;28;683;-60
2021/10/26 02:53:40;;;;;;;;;;;;;;;14.52;78.19;101455.03;1045724;28;763;-61
2021/10/26 02:54:30;;;;;;;;;;;;;;;14.51;77.75;101453.34;1045795;28;782;-61
2021/10/26 02:55:21;;;;;;;;;;;;;;;14.52;77.73;101457.72;1045247;28;665;-60
2021/10/26 02:56:11;;;;;;;;;;;;;;;14.52;78.17;101460.41;1046356;28;959;-60
2021/10/26 02:57:01;;;;;;;;;;;;;;;14.52;77.59;101452.34;1046552;28;738;-60
2021/10/26 02:57:52;;;;;;;;;;;;;;;14.50;78.36;101457.00;1046509;28;677;-61
2021/10/26 02:58:42;;;;;;;;;;;;;;;14.50;77.87;101459.69;1046332;28;1965;-60
2021/10/26 02:59:33;;;;;;;;;;;;;;;14.52;77.99;101463.06;1047065;28;610;-60
2021/10/26 03:00:23;;;;;;;;;;;;;;;14.52;77.92;101457.72;1046397;28;861;-60
2021/10/26 03:01:13;;;;;;;;;;;;;;;14.52;78.46;101458.56;1046539;28;767;-60
2021/10/26 03:02:04;;;;;;;;;;;;;;;14.50;77.54;101448.94;1046421;28;756;-59
2021/10/26 03:02:54;;;;;;;;;;;;;;;14.50;78.25;101459.69;1046321;28;689;-59
2021/10/26 03:03:45;;;;;;;;;;;;;;;14.52;78.39;101455.03;1046407;28;625;-59
2021/10/26 03:04:35;;;;;;;;;;;;;;;14.51;78.16;101456.84;1046384;28;746;-59
2021/10/26 03:05:26;;;;;;;;;;;;;;;14.50;77.99;101457.00;1045835;28;723;-59
2021/10/26 03:06:16;;;;;;;;;;;;;;;14.51;77.60;101458.72;1045884;28;632;-59
2021/10/26 03:07:06;;;;;;;;;;;;;;;14.50;78.48;101448.94;1046366;28;664;-59
2021/10/26 03:07:57;;;;;;;;;;;;;;;14.49;78.41;101452.59;1042947;28;680;-60
2021/10/26 03:08:47;;;;;;;;;;;;;;;14.49;77.87;101450.78;1041717;28;852;-59
2021/10/26 03:09:38;;;;;;;;;;;;;;;14.49;77.79;101452.59;1041685;28;664;-60
2021/10/26 03:10:28;;;;;;;;;;;;;;;14.49;77.72;101452.59;1041755;28;734;-59
2021/10/26 03:11:18;;;;;;;;;;;;;;;14.49;78.19;101449.91;1041687;28;661;-60
2021/10/26 03:12:09;;;;;;;;;;;;;;;14.49;78.49;101453.44;1041757;28;677;-59
2021/10/26 03:12:59;;;;;;;;;;;;;;;14.48;77.41;101449.06;1041067;28;855;-59
2021/10/26 03:13:50;;;;;;;;;;;;;;;14.50;77.67;101454.31;1041771;28;720;-59
2021/10/26 03:14:40;;;;;;;;;;;;;;;14.51;77.69;101462.22;1041724;28;693;-59
2021/10/26 03:15:30;;;;;;;;;;;;;;;14.50;78.11;101454.31;1036756;28;707;-60
2021/10/26 03:16:21;;;;;;;;;;;;;;;14.50;78.18;101454.31;1038509;28;682;-59
2021/10/26 03:17:11;;;;;;;;;;;;;;;14.49;78.10;101460.66;1042123;28;841;-60
2021/10/26 03:18:02;;;;;;;;;;;;;;;14.48;77.61;101453.56;1041647;28;1568;-59
2021/10/26 03:18:52;;;;;;;;;;;;;;;14.49;77.76;101457.97;1041677;28;680;-60
2021/10/26 03:19:42;;;;;;;;;;;;;;;14.48;77.66;101450.88;1041583;28;661;-60
2021/10/26 03:20:33;;;;;;;;;;;;;;;14.48;78.23;101453.56;1041670;28;626;-59
2021/10/26 03:21:23;;;;;;;;;;;;;;;14.49;77.85;101452.59;1041645;28;866;-59
2021/10/26 03:22:14;;;;;;;;;;;;;;;14.49;77.51;101449.91;1041814;28;640;-59
2021/10/26 03:23:05;;;;;;;;;;;;;;;14.49;77.74;101457.97;1041838;28;747;-60
2021/10/26 03:23:55;;;;;;;;;;;;;;;14.48;78.25;101448.19;1041675;28;712;-60
2021/10/26 03:24:46;;;;;;;;;;;;;;;14.49;77.43;101457.97;1045298;28;1809;-60
2021/10/26 03:25:36;;;;;;;;;;;;;;;14.49;77.84;101449.91;1045731;28;676;-60
2021/10/26 03:26:26;;;;;;;;;;;;;;;14.48;78.31;101454.41;1045759;28;635;-60
2021/10/26 03:27:17;;;;;;;;;;;;;;;14.49;77.81;101452.59;1045411;28;742;-60
2021/10/26 03:28:07;;;;;;;;;;;;;;;14.48;77.73;101454.41;1045538;28;704;-59
2021/10/26 03:28:58;;;;;;;;;;;;;;;14.48;77.76;101456.25;1045839;28;641;-59
2021/10/26 03:29:48;;;;;;;;;;;;;;;14.47;78.33;101449.16;1045822;28;922;-59
2021/10/26 03:30:39;;;;;;;;;;;;;;;14.48;77.66;101451.75;1045685;28;680;-59
2021/10/26 03:31:29;;;;;;;;;;;;;;;14.47;78.00;101447.34;1045764;28;677;-58
2021/10/26 03:32:20;;;;;;;;;;;;;;;14.46;77.84;101451.00;1045808;28;673;-59
2021/10/26 03:33:10;;;;;;;;;;;;;;;14.47;77.54;101450.03;1045677;28;1019;-58
2021/10/26 03:34:01;;;;;;;;;;;;;;;14.46;78.47;101448.31;1045650;28;750;-59
2021/10/26 03:34:51;;;;;;;;;;;;;;;14.47;78.32;101441.13;1045802;28;721;-59
2021/10/26 03:35:42;;;;;;;;;;;;;;;14.47;77.61;101450.03;1045690;28;781;-59
2021/10/26 03:36:33;;;;;;;;;;;;;;;14.47;77.79;101438.44;1042134;28;1767;-60
2021/10/26 03:37:24;;;;;;;;;;;;;;;14.48;78.07;101442.84;1041078;28;680;-59
2021/10/26 03:38:14;;;;;;;;;;;;;;;14.48;77.86;101450.88;1043760;28;647;-59
2021/10/26 03:39:04;;;;;;;;;;;;;;;14.47;77.78;101439.28;1044757;28;689;-59
2021/10/26 03:39:56;;;;;;;;;;;;;;;14.47;77.94;101439.28;1044528;28;673;-59
2021/10/26 03:40:46;;;;;;;;;;;;;;;14.47;77.92;101433.94;1044762;28;685;-59
2021/10/26 03:41:36;;;;;;;;;;;;;;;14.47;78.25;101444.66;1044377;28;623;-59
2021/10/26 03:42:27;;;;;;;;;;;;;;;14.46;77.72;101442.94;1040195;28;618;-58
2021/10/26 03:43:17;;;;;;;;;;;;;;;14.47;78.39;101433.06;1040798;28;665;-58
2021/10/26 03:44:08;;;;;;;;;;;;;;;14.47;77.94;101444.66;1045610;28;743;-58
2021/10/26 03:44:58;;;;;;;;;;;;;;;14.48;78.06;101442.84;1044691;28;756;-58
2021/10/26 03:45:49;;;;;;;;;;;;;;;14.48;78.40;101448.19;1044462;28;764;-58
2021/10/26 03:46:39;;;;;;;;;;;;;;;14.47;78.30;101438.44;1044486;28;789;-58
2021/10/26 03:47:29;;;;;;;;;;;;;;;14.47;78.04;101443.81;1044735;28;708;-58
2021/10/26 03:48:20;;;;;;;;;;;;;;;14.47;78.53;101447.34;1044389;28;1475;-58
2021/10/26 03:49:11;;;;;;;;;;;;;;;14.47;77.92;101441.13;1044512;28;677;-59
2021/10/26 03:50:02;;;;;;;;;;;;;;;14.47;78.32;101449.16;1044568;28;547;-58
2021/10/26 03:50:52;;;;;;;;;;;;;;;14.47;78.06;101446.47;1044406;28;1853;-58
2021/10/26 03:51:42;;;;;;;;;;;;;;;14.47;78.55;101443.81;1041465;28;618;-58
2021/10/26 03:52:33;;;;;;;;;;;;;;;14.47;78.60;101449.16;1042694;28;733;-58
2021/10/26 03:53:23;;;;;;;;;;;;;;;14.47;78.62;101443.81;1045342;28;754;-60
2021/10/26 03:54:14;;;;;;;;;;;;;;;14.47;77.87;101454.53;1046266;28;755;-60
2021/10/26 03:55:04;;;;;;;;;;;;;;;14.46;78.31;101448.31;1046114;28;1191;-60
2021/10/26 03:55:55;;;;;;;;;;;;;;;14.47;77.97;101457.22;1047028;28;638;-60
2021/10/26 03:56:45;;;;;;;;;;;;;;;14.47;77.86;101454.53;1041023;28;798;-61
2021/10/26 03:57:35;;;;;;;;;;;;;;;14.47;77.84;101450.03;1041210;28;669;-60
2021/10/26 03:58:26;;;;;;;;;;;;;;;14.47;78.13;101451.84;1045490;28;1918;-60
2021/10/26 03:59:16;;;;;;;;;;;;;;;14.46;78.32;101448.31;1046304;28;713;-60
2021/10/26 04:00:07;;;;;;;;;;;;;;;14.46;77.89;101450.13;1046951;28;633;-60
2021/10/26 04:00:57;;;;;;;;;;;;;;;14.46;78.71;101447.44;1046122;28;796;-59
2021/10/26 04:01:49;;;;;;;;;;;;;;;14.46;78.52;101458.19;1042356;28;696;-60
2021/10/26 04:02:41;;;;;;;;;;;;;;;14.45;78.65;101457.31;1041188;28;630;-60
2021/10/26 04:03:31;;;;;;;;;;;;;;;14.45;78.25;101462.69;1044527;28;658;-60
2021/10/26 04:04:22;;;;;;;;;;;;;;;14.45;78.48;101468.03;1046924;28;689;-61
2021/10/26 04:05:18;;;;;;;;;;;;;;;14.46;78.49;101466.22;1046135;28;938;-59
2021/10/26 04:06:13;;;;;;;;;;;;;;;14.46;78.31;101460.84;1046789;28;720;-59
2021/10/26 04:07:06;;;;;;;;;;;;;;;14.46;78.02;101463.53;1043544;28;805;-59
2021/10/26 04:08:06;;;;;;;;;;;;;;;14.45;78.47;101470.72;1041806;28;638;-59
2021/10/26 04:09:06;;;;;;;;;;;;;;;14.46;78.51;101477.81;1041870;28;646;-59
2021/10/26 04:10:02;;;;;;;;;;;;;;;14.46;77.90;101467.06;1041431;28;642;-59
2021/10/26 04:11:00;;;;;;;;;;;;;;;14.45;78.07;101467.19;1042073;28;681;-59
2021/10/26 04:11:54;;;;;;;;;;;;;;;14.46;78.08;101468.91;1040993;28;709;-59
2021/10/26 04:12:44;;;;;;;;;;;;;;;14.46;77.96;101463.53;1042036;28;665;-59
2021/10/26 04:13:35;;;;;;;;;;;;;;;14.45;78.65;101467.19;1041547;28;666;-59
2021/10/26 04:14:25;;;;;;;;;;;;;;;14.46;78.26;101466.22;1037986;28;618;-59
2021/10/26 04:15:16;;;;;;;;;;;;;;;14.45;77.87;101468.03;1039112;28;869;-59
2021/10/26 04:16:06;;;;;;;;;;;;;;;14.45;78.23;101475.22;1041572;28;786;-61
2021/10/26 04:16:56;;;;;;;;;;;;;;;14.44;78.47;101469.00;1041666;28;643;-60
2021/10/26 04:17:47;;;;;;;;;;;;;;;14.45;78.25;101469.88;1041642;28;636;-59
2021/10/26 04:18:37;;;;;;;;;;;;;;;14.44;78.48;101466.31;1041290;28;1949;-59
2021/10/26 04:19:28;;;;;;;;;;;;;;;14.45;78.27;101472.53;1041580;28;760;-60
2021/10/26 04:20:18;;;;;;;;;;;;;;;14.45;78.04;101472.53;1041574;28;637;-60
2021/10/26 04:21:08;;;;;;;;;;;;;;;14.43;78.11;101469.97;1041630;28;736;-60
2021/10/26 04:21:59;;;;;;;;;;;;;;;14.43;78.72;101466.44;1040293;28;841;-59
2021/10/26 04:22:49;;;;;;;;;;;;;;;14.44;78.20;101469.00;1041578;28;637;-59
2021/10/26 04:23:40;;;;;;;;;;;;;;;14.45;77.88;101465.34;1041510;28;809;-59
2021/10/26 04:24:30;;;;;;;;;;;;;;;14.45;78.38;101469.88;1041515;28;625;-59
2021/10/26 04:25:20;;;;;;;;;;;;;;;14.45;78.17;101472.53;1040353;28;1038;-59
2021/10/26 04:26:11;;;;;;;;;;;;;;;14.44;77.64;101471.69;1041243;28;777;-59